Capital City Airport
KLAN : rendu visible

Aérodrome :











RETROUVEZ-NOUS SUR...

 
LOGIN :

S'inscrire | Disclaimer

   EN    FR    IT 

 









Légende :    VFR   VFR Marginal   IFR   IFR Intensif   IFR Très Intensif
Visi : 
Plafond : 
>= 8 km
>= 3000ft
5 à 8 km
1000 à 3000 ft
1500m à 5 km
500 à 1000 ft
800 à 1500m
200 à 500 ft
< 800m
< 200 ft
Symboles :   Orages  Brouillard  Fortes neiges  Fortes précipitations  Vent > 20 kt






- Altitude de l'aérodrome : 861 ft
- Code IATA : LAN


KLAN - Capital City

DERNIER METAR :
  • 121753Z 27012G19KT 10SM FEW033 FEW050 SCT060 M05/M13 A3032 RMK AO2 UPE09 SLP281 P0000 60000 T10501128 11044 21117 50000

METARs EXPIRÉS :
  • 121653Z 31013KT 10SM UP BKN033 M05/M13 A3032 RMK AO2 UPB18 SLP283 P0000 T10501128
  • 121553Z 30009KT 10SM FEW024 M06/M12 A3032 RMK AO2 UPB1457E36 SLP283 P0000 T10611117

TAF KLAN
Valide du 12 à 18h jusqu'au 13 à 18h UTC


121740Z 1218/1318 31012KT P6SM VCSH BKN035
FM130100 26005KT P6SM BKN200
FM131600 18012KT P6SM BKN150
FM131700 18014G21KT P6SM BKN120



MET'MAP, la Météo Aéronautique d'un coup d'oeil ! - Copyright ORBIFLY Décembre 2007 - Disclaimer

ORBIFLY MET'MAP TEAM :

Programmation & Développement : Alexandra Zaïnal
Conception & Développement : Baudouin d'Aumeries
Co-Programmation & Développement : Marc-Olivier Méhu
Soutien technique & logistique : Manuel Goepfert

Contact : metmap@orbifly.com




SOURCES & CREDITS :

   NOAA       Earth
Advisory